Lafayette, IN (47901)

6:57 PM EST on December 10, 2016 (GMT -0500)
Sequoya Dr. / Miami Elementary | | Change Station

Elev 659 ft 40.39 °N, 86.87 °W | Updated 1 second ago

Light Snow
Light Snow
26.6 °F
Feels Like 27 °F
N
2.0
Wind Variable Wind from South
Gusts 2.5 mph

Today
High -- | Low -- °F
--% Chance of Precip.
Yesterday
High -- | Low -- °F
Precip. -- in
Pressure 30.46 in
Visibility 1.5 miles
Clouds Overcast 2000 ft
Windchill 27 °F
Dew Point 18 °F
Humidity 69%
Rainfall 0.00 in
Snow Depth Not available.
8:00 AM 5:21 PM
Waxing Gibbous, 87% visible
METAR KLAF 102354Z 19003KT 1 1/2SM -SN OVC020 M04/M07 A3043 RMK AO2 SNB19 SLP313 P0000 60000 T10441072 11028 21044 57007
Pressure 30.46 in
Visibility 1.5 miles
Clouds Overcast 2000 ft
Windchill 27 °F
Dew Point 18 °F
Humidity 69%
Rainfall 0.00 in
Snow Depth Not available.
8:00 AM 5:21 PM
Waxing Gibbous, 87% visible
METAR KLAF 102354Z 19003KT 1 1/2SM -SN OVC020 M04/M07 A3043 RMK AO2 SNB19 SLP313 P0000 60000 T10441072 11028 21044 57007

10-Day Weather Forecast

Almanac

Astronomy

Dec. 10, 2016 Rise Set
Actual Time
Civil Twilight
Nautical Twilight
Astronomical Twilight
Moon
Length of Visible Light
Length of Day
Tomorrow will be .
, % of the Moon is Illuminated

Today's Extremes

State Highs State Lows

Community

WunderPhotos

Upload Photos

1,956,677 photos uploaded!

WunderBlog® & News

Nearby

Air Quality

  Air Quality AQ Index Pollutant
Not available.

Snow Depth

Station Depth Elevation

Earthquake Activity

City Distance Mag. Time & Date
Minimum magnitude displayed is 2.5.

Coastal Water Temperatures

Place Temperature

Stations

Nearby Weather Stations

Station Location Temp. Windchill Dew Point Humidity Wind Precip. Elev Updated Type
                   

Watches & Warnings

There are currently no watches in effect.